Time;durP1;ratioP1;P1;durP2;ratioP2;P2;SDS_P1;SDS_P2;PMS_P1;PMS_P2;Temp;Humidity;BMP_temperature;BMP_pressure;BME280_temperature;BME280_humidity;BME280_pressure;Samples;Min_cycle;Max_cycle;Signal;HPM_P1;HPM_P2
2023/01/25 00:01:40;;;;;;;46.43;20.40;;;;;;;0.30;100.00;101956.50;5097351;23;20230;-63
2023/01/25 00:04:07;;;;;;;49.53;22.00;;;;;;;0.52;100.00;101956.78;5117069;23;20720;-62
2023/01/25 00:06:34;;;;;;;52.80;21.93;;;;;;;0.27;100.00;101959.22;5074463;23;20204;-61
2023/01/25 00:09:01;;;;;;;50.23;23.23;;;;;;;0.14;100.00;101958.66;5097728;23;20216;-64
2023/01/25 00:11:27;;;;;;;49.87;21.57;;;;;;;0.07;100.00;101964.97;5092107;23;21068;-60
2023/01/25 00:13:54;;;;;;;48.00;20.93;;;;;;;0.02;100.00;101959.00;5100456;23;20242;-59
2023/01/25 00:16:22;;;;;;;46.00;21.30;;;;;;;0.31;100.00;101956.47;5089698;23;20207;-61
2023/01/25 00:18:49;;;;;;;31.77;15.70;;;;;;;0.40;100.00;101964.06;5068704;23;20262;-61
2023/01/25 00:21:21;;;;;;;37.10;17.83;;;;;;;0.13;100.00;101964.81;5110946;23;20216;-65
2023/01/25 00:23:49;;;;;;;35.07;16.77;;;;;;;0.08;100.00;101966.69;5107250;23;21182;-64
2023/01/25 00:26:16;;;;;;;32.17;16.90;;;;;;;-0.11;100.00;101958.47;5094475;23;20234;-65
2023/01/25 00:28:42;;;;;;;32.80;15.97;;;;;;;0.00;100.00;101948.59;5074596;23;20203;-65
2023/01/25 00:31:15;;;;;;;34.33;16.43;;;;;;;0.25;100.00;101948.78;5082235;23;20674;-62
2023/01/25 00:33:50;;;;;;;36.23;16.60;;;;;;;0.34;100.00;101943.28;5084468;23;20242;-62
2023/01/25 00:36:32;;;;;;;39.40;17.87;;;;;;;0.11;100.00;101940.44;5098483;23;20619;-61
2023/01/25 00:38:59;;;;;;;35.43;16.17;;;;;;;0.14;100.00;101942.97;5085445;23;20251;-63
2023/01/25 00:41:25;;;;;;;37.37;18.47;;;;;;;0.09;100.00;101934.38;5124111;23;20203;-62
2023/01/25 00:43:52;;;;;;;32.00;15.90;;;;;;;0.09;100.00;101937.00;5105016;23;20215;-62
2023/01/25 00:46:19;;;;;;;33.40;15.87;;;;;;;0.11;100.00;101938.66;5126274;23;20385;-61
2023/01/25 00:48:45;;;;;;;35.63;15.97;;;;;;;0.06;100.00;101942.31;5092664;23;22243;-61
2023/01/25 00:51:12;;;;;;;39.30;16.90;;;;;;;0.18;100.00;101928.91;5096835;23;20269;-58
2023/01/25 00:53:39;;;;;;;35.53;17.40;;;;;;;0.08;100.00;101919.59;5105304;23;20770;-61
2023/01/25 00:56:05;;;;;;;34.97;16.33;;;;;;;0.11;100.00;101919.50;5093579;23;21534;-61
2023/01/25 00:58:32;;;;;;;38.30;17.23;;;;;;;0.12;100.00;101921.22;5102046;23;21676;-63
2023/01/25 01:00:59;;;;;;;38.97;17.23;;;;;;;0.11;100.00;101922.97;5081844;23;21782;-60
2023/01/25 01:03:25;;;;;;;30.73;15.23;;;;;;;-0.10;100.00;101913.94;5108122;23;20207;-61
2023/01/25 01:06:10;;;;;;;32.13;15.13;;;;;;;-0.01;100.00;101916.31;5075144;23;20203;-61
2023/01/25 01:08:41;;;;;;;31.23;15.03;;;;;;;-0.12;100.00;101918.34;5077906;23;21497;-61
2023/01/25 01:11:09;;;;;;;27.87;13.63;;;;;;;-0.20;99.96;101925.53;5078469;23;20214;-62
2023/01/25 01:13:37;;;;;;;29.77;14.30;;;;;;;-0.20;100.00;101915.06;5070992;23;21724;-64
2023/01/25 01:16:07;;;;;;;26.63;14.07;;;;;;;-0.29;100.00;101915.31;5078023;23;20207;-63
2023/01/25 01:18:35;;;;;;;27.57;13.20;;;;;;;-0.10;100.00;101916.53;5089910;23;20273;-60
2023/01/25 01:21:02;;;;;;;31.67;14.70;;;;;;;-0.07;99.15;101913.88;5083649;23;22253;-63
2023/01/25 01:23:29;;;;;;;29.77;13.83;;;;;;;-0.05;99.14;101909.44;5115005;23;21355;-62
2023/01/25 01:25:59;;;;;;;28.23;14.40;;;;;;;-0.09;98.98;101913.03;5081296;23;20214;-60
2023/01/25 01:28:28;;;;;;;30.60;14.50;;;;;;;-0.19;99.84;101916.78;5082750;23;20203;-63
2023/01/25 01:31:02;;;;;;;26.60;13.27;;;;;;;-0.20;100.00;101915.06;5094221;23;21751;-60
2023/01/25 01:33:28;;;;;;;23.67;12.80;;;;;;;-0.37;99.57;101917.28;5093204;23;20266;-63
2023/01/25 01:35:55;;;;;;;24.37;11.53;;;;;;;-0.35;98.95;101918.06;5076548;23;20418;-61
2023/01/25 01:38:23;;;;;;;23.17;12.00;;;;;;;-0.31;97.83;101911.88;5096342;23;23413;-63
2023/01/25 01:40:49;;;;;;;34.43;15.57;;;;;;;-0.18;96.96;101902.81;5083847;23;20509;-64
2023/01/25 01:43:18;;;;;;;24.50;11.97;;;;;;;-0.36;97.56;101905.91;5087105;23;22622;-61
2023/01/25 01:45:48;;;;;;;26.13;12.20;;;;;;;-0.29;97.79;101899.63;5071003;23;21300;-62
2023/01/25 01:48:29;;;;;;;24.20;12.43;;;;;;;-0.33;98.76;101901.47;5097133;23;20602;-63
2023/01/25 01:50:59;;;;;;;27.30;13.03;;;;;;;-0.19;98.13;101897.63;5081623;23;20377;-63
2023/01/25 01:53:26;;;;;;;22.93;11.73;;;;;;;-0.35;97.81;101905.00;5084053;23;20203;-63
2023/01/25 01:55:56;;;;;;;26.53;12.50;;;;;;;-0.40;98.21;101901.63;5108521;23;20203;-66
2023/01/25 01:58:23;;;;;;;23.33;11.70;;;;;;;-0.52;98.33;101903.66;5082611;23;22594;-63
2023/01/25 02:00:49;;;;;;;26.57;13.03;;;;;;;-0.56;98.76;101901.16;5091344;23;20207;-62
2023/01/25 02:03:16;;;;;;;27.73;12.60;;;;;;;-0.59;99.51;101904.69;5084062;23;22304;-62
2023/01/25 02:05:43;;;;;;;23.93;12.40;;;;;;;-0.65;99.67;101902.25;5089205;23;20205;-66
2023/01/25 02:08:13;;;;;;;28.43;11.83;;;;;;;-0.49;99.44;101902.75;5093715;23;20637;-64
2023/01/25 02:10:41;;;;;;;21.67;10.90;;;;;;;-0.43;98.50;101890.34;5097289;23;20200;-62
2023/01/25 02:13:08;;;;;;;27.47;12.23;;;;;;;-0.64;98.41;101894.34;5077971;23;20986;-60
2023/01/25 02:15:41;;;;;;;24.30;11.83;;;;;;;-0.67;99.05;101883.13;5092977;23;20208;-65
2023/01/25 02:18:09;;;;;;;23.27;12.47;;;;;;;-0.54;99.03;101884.56;5099250;23;20207;-60
2023/01/25 02:20:40;;;;;;;25.27;12.53;;;;;;;-0.65;98.17;101887.41;5082687;23;20207;-63
2023/01/25 02:23:30;;;;;;;25.07;11.17;;;;;;;-0.71;98.76;101876.25;5109187;23;20735;-60
2023/01/25 02:25:59;;;;;;;24.07;11.77;;;;;;;-0.65;98.69;101876.13;5067042;23;20203;-62
2023/01/25 02:28:36;;;;;;;25.17;11.80;;;;;;;-0.62;98.66;101876.03;5068936;23;22880;-64
2023/01/25 02:31:03;;;;;;;21.47;11.13;;;;;;;-0.69;97.67;101866.63;5081130;23;20286;-62
2023/01/25 02:33:30;;;;;;;24.43;11.93;;;;;;;-0.82;98.05;101865.19;5095379;23;21324;-61
2023/01/25 02:36:18;;;;;;;22.73;11.50;;;;;;;-0.90;98.76;101865.38;5092317;23;21771;-63
2023/01/25 02:38:50;;;;;;;25.17;11.77;;;;;;;-0.64;98.15;101864.75;5097416;23;20207;-62
2023/01/25 02:41:22;;;;;;;26.67;11.97;;;;;;;-0.52;97.70;101864.44;5093233;23;20370;-62
2023/01/25 02:43:49;;;;;;;23.47;12.20;;;;;;;-0.52;97.50;101867.03;5062047;23;21767;-64
2023/01/25 02:46:32;;;;;;;22.17;10.57;;;;;;;-0.61;97.37;101861.19;5090669;23;20275;-61
2023/01/25 02:48:59;;;;;;;22.67;11.00;;;;;;;-0.58;97.11;101862.00;5092957;23;20203;-65
2023/01/25 02:51:29;;;;;;;24.63;11.37;;;;;;;-0.74;97.82;101861.50;5090101;23;20244;-60
2023/01/25 02:53:56;;;;;;;24.93;12.57;;;;;;;-0.80;98.52;101858.19;5098163;23;20211;-62
2023/01/25 02:56:23;;;;;;;22.63;11.47;;;;;;;-0.67;98.35;101860.47;5092597;23;21647;-60
2023/01/25 02:58:50;;;;;;;21.90;10.63;;;;;;;-0.29;97.21;101863.84;5083418;23;21171;-62
2023/01/25 03:01:16;;;;;;;23.70;10.93;;;;;;;-0.29;95.79;101863.00;5112816;23;20223;-62
2023/01/25 03:03:43;;;;;;;18.90;10.80;;;;;;;-0.17;95.98;101860.03;5080200;23;20209;-62
2023/01/25 03:06:10;;;;;;;21.33;10.77;;;;;;;-0.22;95.35;101856.69;5092808;23;20226;-62
2023/01/25 03:08:37;;;;;;;20.73;10.80;;;;;;;-0.17;94.90;101846.97;5088035;23;20203;-64
2023/01/25 03:11:04;;;;;;;21.10;10.30;;;;;;;-0.16;93.94;101843.47;5090887;23;20504;-61
2023/01/25 03:13:31;;;;;;;21.83;11.00;;;;;;;-0.16;93.48;101842.63;5089811;23;20207;-60
2023/01/25 03:16:03;;;;;;;22.93;11.33;;;;;;;-0.54;95.72;101821.81;5106015;23;23021;-61
2023/01/25 03:18:30;;;;;;;30.57;12.47;;;;;;;-0.68;96.53;101821.28;5083967;23;20294;-62
2023/01/25 03:21:04;;;;;;;30.63;12.77;;;;;;;-0.66;96.82;101822.09;5113095;23;20211;-61
2023/01/25 03:23:30;;;;;;;20.77;10.27;;;;;;;-0.63;96.50;101824.66;5089310;23;20202;-63
2023/01/25 03:26:18;;;;;;;25.27;12.10;;;;;;;-0.67;96.87;101821.25;5086173;23;20342;-62
2023/01/25 03:28:45;;;;;;;24.00;11.80;;;;;;;-0.60;97.58;101821.09;5099629;23;20230;-61
2023/01/25 03:31:13;;;;;;;31.17;12.00;;;;;;;-0.55;97.35;101820.06;5094063;23;20265;-61
2023/01/25 03:33:41;;;;;;;18.83;8.33;;;;;;;-0.67;96.23;101815.16;5102213;23;20967;-64
2023/01/25 03:36:09;;;;;;;16.20;8.10;;;;;;;-0.70;96.18;101812.63;5098125;23;20237;-64
2023/01/25 03:38:35;;;;;;;14.47;7.60;;;;;;;-0.65;96.11;101806.38;5093695;23;21688;-61
2023/01/25 03:41:02;;;;;;;12.27;7.07;;;;;;;-0.74;95.37;101808.38;5095767;23;21914;-63
2023/01/25 03:43:29;;;;;;;14.97;7.83;;;;;;;-0.97;95.91;101812.41;5099338;23;21771;-63
2023/01/25 03:45:58;;;;;;;16.37;8.43;;;;;;;-1.06;97.22;101810.88;5101628;23;20323;-62
2023/01/25 03:48:26;;;;;;;15.93;8.07;;;;;;;-0.90;97.56;101806.13;5081836;23;20745;-61
2023/01/25 03:50:55;;;;;;;14.80;7.27;;;;;;;-1.09;97.56;101802.25;5114553;23;20580;-62
2023/01/25 03:53:28;;;;;;;13.93;7.40;;;;;;;-1.13;97.74;101791.00;5097156;23;20709;-61
2023/01/25 03:56:10;;;;;;;15.33;7.80;;;;;;;-0.92;97.67;101802.69;5077966;23;20222;-61
2023/01/25 03:58:38;;;;;;;15.53;7.73;;;;;;;-0.87;96.69;101807.81;5115561;23;20234;-67
2023/01/25 04:01:06;;;;;;;15.93;7.60;;;;;;;-0.95;97.19;101794.94;5103121;23;20640;-61
2023/01/25 04:03:33;;;;;;;13.90;7.40;;;;;;;-0.88;96.71;101786.06;5093667;23;20202;-63
2023/01/25 04:06:00;;;;;;;16.43;7.87;;;;;;;-0.96;96.35;101789.75;5091025;23;20207;-64
2023/01/25 04:08:27;;;;;;;14.77;7.77;;;;;;;-1.06;96.71;101800.41;5098709;23;20868;-60
2023/01/25 04:11:15;;;;;;;17.20;8.30;;;;;;;-1.08;97.30;101783.94;5092005;23;20203;-64
2023/01/25 04:13:41;;;;;;;21.63;9.40;;;;;;;-1.09;97.39;101797.03;5133437;22;21457;-61
2023/01/25 04:16:10;;;;;;;20.07;8.60;;;;;;;-1.08;97.15;101786.56;5099076;23;20206;-63
2023/01/25 04:18:38;;;;;;;18.67;8.53;;;;;;;-1.07;97.04;101785.66;5104374;23;20313;-61
2023/01/25 04:21:05;;;;;;;17.27;9.03;;;;;;;-1.25;97.72;101785.25;5095406;23;20206;-64
2023/01/25 04:23:32;;;;;;;26.50;13.50;;;;;;;-1.29;98.67;101790.53;5103222;23;20406;-64
2023/01/25 04:26:01;;;;;;;30.87;14.77;;;;;;;-1.38;99.49;101784.66;5077617;23;20225;-63
2023/01/25 04:28:28;;;;;;;31.87;15.67;;;;;;;-1.38;100.00;101782.91;5086015;23;20600;-60
2023/01/25 04:30:55;;;;;;;34.07;15.13;;;;;;;-1.28;100.00;101781.81;5081570;23;20210;-61
2023/01/25 04:33:22;;;;;;;36.30;18.13;;;;;;;-1.24;99.41;101785.22;5083961;23;20218;-63
2023/01/25 04:35:49;;;;;;;35.87;18.23;;;;;;;-1.22;99.62;101783.41;5105561;23;21983;-63
2023/01/25 04:38:15;;;;;;;38.90;18.83;;;;;;;-1.25;99.80;101775.66;5088734;23;20373;-62
2023/01/25 04:40:42;;;;;;;37.83;18.93;;;;;;;-1.34;100.00;101770.63;5096181;23;20272;-61
2023/01/25 04:43:11;;;;;;;37.80;18.33;;;;;;;-1.40;100.00;101776.88;5082432;23;20203;-62
2023/01/25 04:45:38;;;;;;;43.40;19.23;;;;;;;-1.53;100.00;101775.44;5051126;23;20214;-62
2023/01/25 04:48:08;;;;;;;42.97;20.97;;;;;;;-1.46;100.00;101770.94;5083310;23;20397;-63
2023/01/25 04:50:36;;;;;;;42.07;20.50;;;;;;;-1.42;100.00;101773.44;5081533;23;20390;-63
2023/01/25 04:53:05;;;;;;;43.60;20.93;;;;;;;-1.42;100.00;101763.00;5073371;23;20260;-63
2023/01/25 04:55:32;;;;;;;43.23;20.20;;;;;;;-1.30;100.00;101767.06;5074326;23;20839;-65
2023/01/25 04:58:00;;;;;;;44.23;20.63;;;;;;;-1.34;100.00;101776.72;5067255;23;21549;-62
2023/01/25 05:00:27;;;;;;;45.87;20.83;;;;;;;-1.39;100.00;101768.13;5086102;23;20385;-63
2023/01/25 05:02:54;;;;;;;48.07;21.90;;;;;;;-1.45;100.00;101773.50;5100141;23;20205;-61
2023/01/25 05:05:21;;;;;;;44.83;21.83;;;;;;;-1.50;100.00;101770.13;5084627;23;22201;-59
2023/01/25 05:07:47;;;;;;;46.93;21.77;;;;;;;-1.59;100.00;101772.94;5068636;23;20292;-63
2023/01/25 05:10:14;;;;;;;44.47;21.90;;;;;;;-1.56;100.00;101775.50;5080516;23;20401;-60
2023/01/25 05:12:40;;;;;;;46.80;22.63;;;;;;;-1.63;100.00;101776.53;5104791;23;25654;-62
2023/01/25 05:15:07;;;;;;;42.33;20.07;;;;;;;-1.47;100.00;101767.47;5084022;23;20823;-62
2023/01/25 05:17:34;;;;;;;43.80;20.53;;;;;;;-1.55;100.00;101772.84;5058401;23;20569;-59
2023/01/25 05:20:01;;;;;;;51.70;22.50;;;;;;;-1.55;100.00;101770.22;5084933;23;21581;-62
2023/01/25 05:22:28;;;;;;;43.93;21.27;;;;;;;-1.51;100.00;101768.41;5082679;23;20484;-61
2023/01/25 05:24:54;;;;;;;44.33;22.00;;;;;;;-1.56;100.00;101758.09;5077677;23;20207;-64
2023/01/25 05:27:21;;;;;;;44.13;20.60;;;;;;;-1.56;100.00;101762.44;5086927;23;20215;-60
2023/01/25 05:29:48;;;;;;;40.63;21.40;;;;;;;-1.66;100.00;101758.31;5083031;23;20215;-62
2023/01/25 05:32:19;;;;;;;48.87;22.40;;;;;;;-1.79;100.00;101765.56;5081960;23;20523;-63
2023/01/25 05:34:47;;;;;;;48.83;22.60;;;;;;;-1.94;100.00;101757.19;5098528;23;21709;-60
2023/01/25 05:37:16;;;;;;;49.63;22.00;;;;;;;-1.93;100.00;101755.44;5090714;23;20881;-61
2023/01/25 05:39:43;;;;;;;49.17;22.27;;;;;;;-1.93;100.00;101763.25;5086953;23;20368;-62
2023/01/25 05:42:12;;;;;;;53.87;23.60;;;;;;;-1.76;100.00;101758.50;5082283;23;20905;-62
2023/01/25 05:44:39;;;;;;;50.20;23.63;;;;;;;-1.93;100.00;101765.84;5085543;23;20200;-63
2023/01/25 05:47:06;;;;;;;53.90;23.30;;;;;;;-2.03;100.00;101749.53;5084375;23;20902;-62
2023/01/25 05:49:33;;;;;;;50.90;23.60;;;;;;;-2.01;100.00;101746.91;5075320;23;21132;-64
2023/01/25 05:51:59;;;;;;;51.93;23.87;;;;;;;-2.04;100.00;101753.03;5076592;23;20210;-63
2023/01/25 05:54:26;;;;;;;57.10;25.20;;;;;;;-1.97;100.00;101749.44;5083779;23;20246;-65
2023/01/25 05:56:52;;;;;;;52.27;24.90;;;;;;;-1.90;100.00;101755.34;5074641;23;21770;-61
2023/01/25 05:59:19;;;;;;;51.67;24.33;;;;;;;-2.00;100.00;101743.41;5080567;23;21726;-64
2023/01/25 06:01:45;;;;;;;54.83;24.20;;;;;;;-2.01;100.00;101731.28;5082054;23;21682;-61
2023/01/25 06:04:17;;;;;;;54.37;24.93;;;;;;;-1.96;100.00;101745.91;5079558;23;24319;-61
2023/01/25 06:06:43;;;;;;;54.87;24.40;;;;;;;-2.03;100.00;101733.06;5095695;23;20213;-64
2023/01/25 06:09:13;;;;;;;55.27;24.70;;;;;;;-2.02;100.00;101735.59;5085204;23;21398;-61
2023/01/25 06:11:43;;;;;;;54.70;24.83;;;;;;;-2.01;100.00;101731.28;5081374;23;20267;-63
2023/01/25 06:14:09;;;;;;;52.40;24.37;;;;;;;-1.92;100.00;101725.81;5082047;23;20255;-62
2023/01/25 06:16:36;;;;;;;56.97;24.57;;;;;;;-1.83;100.00;101728.22;5083854;23;20304;-64
2023/01/25 06:19:07;;;;;;;52.53;25.00;;;;;;;-1.66;100.00;101732.22;5087161;23;20361;-64
2023/01/25 06:21:35;;;;;;;53.67;23.47;;;;;;;-1.81;100.00;101726.47;5080495;23;20609;-61
2023/01/25 06:24:03;;;;;;;52.97;24.10;;;;;;;-1.83;100.00;101730.84;5059381;23;20203;-61
2023/01/25 06:26:30;;;;;;;48.10;22.70;;;;;;;-1.77;100.00;101728.09;5076905;23;20373;-63
2023/01/25 06:28:57;;;;;;;51.10;23.40;;;;;;;-1.92;100.00;101731.94;5073265;23;20281;-64
2023/01/25 06:31:23;;;;;;;45.73;20.93;;;;;;;-1.77;100.00;101733.31;5091797;23;20257;-63
2023/01/25 06:33:51;;;;;;;44.67;19.97;;;;;;;-1.69;100.00;101735.75;5092771;23;20203;-64
2023/01/25 06:36:19;;;;;;;53.63;21.30;;;;;;;-1.82;100.00;101735.19;5077181;23;20307;-64
2023/01/25 06:38:50;;;;;;;50.53;20.10;;;;;;;-1.85;100.00;101735.25;5087267;23;20199;-65
2023/01/25 06:41:17;;;;;;;49.93;21.63;;;;;;;-1.98;100.00;101729.44;5089905;23;25435;-65
2023/01/25 06:43:44;;;;;;;47.50;21.00;;;;;;;-1.78;100.00;101729.00;5079861;23;20214;-62
2023/01/25 06:46:11;;;;;;;53.70;22.67;;;;;;;-1.78;100.00;101722.91;5097825;23;20254;-64
2023/01/25 06:48:38;;;;;;;52.90;22.67;;;;;;;-1.82;100.00;101726.50;5081656;23;20203;-64
2023/01/25 06:51:07;;;;;;;45.50;20.33;;;;;;;-1.72;100.00;101723.63;5062511;23;20286;-66
2023/01/25 06:53:36;;;;;;;53.37;23.43;;;;;;;-1.82;100.00;101722.13;5080568;23;21592;-65
2023/01/25 06:56:10;;;;;;;50.77;22.87;;;;;;;-1.95;100.00;101716.31;5088889;23;20211;-66
2023/01/25 06:58:37;;;;;;;50.33;21.07;;;;;;;-1.82;100.00;101716.94;5081676;23;21118;-60
2023/01/25 07:01:15;;;;;;;52.00;22.83;;;;;;;-1.95;100.00;101716.31;5055565;23;23707;-59
2023/01/25 07:03:42;;;;;;;52.97;23.83;;;;;;;-1.81;100.00;101715.16;5064880;23;20203;-63
2023/01/25 07:06:10;;;;;;;51.03;22.17;;;;;;;-1.89;100.00;101714.50;5082834;23;20635;-61
2023/01/25 07:08:37;;;;;;;53.60;23.33;;;;;;;-1.91;100.00;101711.91;5079271;23;20207;-64
2023/01/25 07:11:08;;;;;;;49.97;22.10;;;;;;;-1.90;100.00;101708.41;5092196;23;22338;-64
2023/01/25 07:13:34;;;;;;;51.90;23.17;;;;;;;-1.87;100.00;101703.13;5106715;23;20204;-61
2023/01/25 07:16:04;;;;;;;60.07;24.03;;;;;;;-1.75;100.00;101697.63;5079663;23;20328;-63
2023/01/25 07:18:31;;;;;;;56.43;23.10;;;;;;;-1.85;100.00;101700.47;5083697;23;20349;-62
2023/01/25 07:21:05;;;;;;;68.57;26.27;;;;;;;-1.78;100.00;101697.72;5091628;23;20457;-62
2023/01/25 07:23:33;;;;;;;64.37;26.13;;;;;;;-1.67;100.00;101705.28;5097251;23;20213;-71
2023/01/25 07:26:00;;;;;;;62.07;25.50;;;;;;;-1.73;100.00;101703.69;5079183;23;25351;-63
2023/01/25 07:28:27;;;;;;;59.07;24.70;;;;;;;-1.97;100.00;101701.59;5091315;23;20205;-65
2023/01/25 07:30:54;;;;;;;52.23;24.13;;;;;;;-2.03;100.00;101692.16;5097145;23;22836;-64
2023/01/25 07:33:21;;;;;;;63.43;25.17;;;;;;;-1.93;100.00;101690.22;5081730;23;21724;-63
2023/01/25 07:35:49;;;;;;;55.57;24.30;;;;;;;-1.85;100.00;101696.13;5076395;23;20292;-62
2023/01/25 07:38:16;;;;;;;59.53;25.40;;;;;;;-1.70;100.00;101689.69;5078778;23;20279;-63
2023/01/25 07:40:45;;;;;;;56.40;25.80;;;;;;;-1.83;100.00;101689.09;5070128;23;20336;-65
2023/01/25 07:43:12;;;;;;;56.90;24.07;;;;;;;-1.84;100.00;101689.16;5078043;23;20214;-63
2023/01/25 07:45:38;;;;;;;58.30;23.00;;;;;;;-1.93;100.00;101692.81;5102884;23;20277;-64
2023/01/25 07:48:08;;;;;;;51.73;24.13;;;;;;;-2.11;100.00;101683.63;5091230;23;21276;-62
2023/01/25 07:50:35;;;;;;;58.63;24.77;;;;;;;-1.96;100.00;101682.47;5102832;23;22425;-64
2023/01/25 07:53:02;;;;;;;51.23;23.37;;;;;;;-1.96;100.00;101683.31;5107293;23;20204;-64
2023/01/25 07:55:29;;;;;;;62.83;24.50;;;;;;;-1.87;100.00;101681.38;5094208;23;20207;-62
2023/01/25 07:57:56;;;;;;;61.33;25.50;;;;;;;-1.88;100.00;101690.13;5070504;23;20273;-63
2023/01/25 08:00:23;;;;;;;57.00;23.30;;;;;;;-1.91;100.00;101689.28;5103718;23;21035;-62
2023/01/25 08:02:51;;;;;;;56.57;24.37;;;;;;;-1.89;100.00;101686.66;5108355;23;20447;-61
2023/01/25 08:05:18;;;;;;;60.60;25.13;;;;;;;-1.92;100.00;101687.59;5089616;23;20211;-64
2023/01/25 08:07:45;;;;;;;58.97;24.90;;;;;;;-1.99;100.00;101682.50;5112317;23;20206;-64
2023/01/25 08:10:12;;;;;;;57.27;25.07;;;;;;;-1.98;100.00;101679.03;5101444;23;20220;-61
2023/01/25 08:12:44;;;;;;;55.03;24.20;;;;;;;-1.87;100.00;101677.03;5083406;23;22825;-63
2023/01/25 08:15:12;;;;;;;59.47;25.23;;;;;;;-1.76;100.00;101684.59;5098797;23;20231;-65
2023/01/25 08:17:39;;;;;;;64.57;25.50;;;;;;;-1.59;99.84;101681.59;5093718;23;22885;-65
2023/01/25 08:20:06;;;;;;;61.20;26.03;;;;;;;-1.75;99.63;101679.38;5092274;23;20199;-63
2023/01/25 08:22:33;;;;;;;65.00;26.23;;;;;;;-1.82;99.87;101675.19;5130855;23;20214;-63
2023/01/25 08:25:00;;;;;;;54.00;25.10;;;;;;;-1.88;100.00;101680.53;5099728;23;20285;-62
2023/01/25 08:27:27;;;;;;;59.60;25.67;;;;;;;-1.84;100.00;101682.19;5085303;23;21344;-64
2023/01/25 08:29:54;;;;;;;58.03;25.60;;;;;;;-1.68;99.43;101676.63;5069192;23;22150;-62
2023/01/25 08:32:21;;;;;;;59.17;24.90;;;;;;;-1.72;99.24;101671.44;5106446;23;20199;-62
2023/01/25 08:34:47;;;;;;;61.30;24.27;;;;;;;-1.52;98.17;101672.75;5103755;23;20227;-64
2023/01/25 08:37:14;;;;;;;65.67;25.00;;;;;;;-1.59;97.70;101665.94;5097531;23;20343;-62
2023/01/25 08:39:40;;;;;;;53.10;22.40;;;;;;;-1.55;97.57;101667.59;5088885;23;22143;-67
2023/01/25 08:42:08;;;;;;;60.03;24.73;;;;;;;-1.68;97.39;101663.56;5090991;23;20596;-67
2023/01/25 08:44:34;;;;;;;58.07;23.63;;;;;;;-1.75;98.11;101661.09;5060503;23;25082;-63
2023/01/25 08:47:01;;;;;;;60.00;24.80;;;;;;;-1.58;98.50;101657.22;5095677;23;20293;-64
2023/01/25 08:49:29;;;;;;;57.83;24.00;;;;;;;-1.55;98.20;101654.53;5099167;23;21546;-64
2023/01/25 08:51:57;;;;;;;52.97;23.57;;;;;;;-1.64;97.99;101657.38;5080851;22;20208;-64
2023/01/25 08:54:24;;;;;;;57.73;24.33;;;;;;;-1.64;97.15;101653.03;5075529;23;25570;-67
2023/01/25 08:56:50;;;;;;;61.40;25.23;;;;;;;-1.70;97.89;101658.38;5100966;23;21759;-64
2023/01/25 08:59:17;;;;;;;64.47;26.37;;;;;;;-1.78;99.13;101655.97;5085539;23;20204;-63
2023/01/25 09:01:43;;;;;;;55.10;24.07;;;;;;;-1.70;98.68;101650.56;5057747;23;20572;-62
2023/01/25 09:04:10;;;;;;;58.87;25.27;;;;;;;-1.60;98.25;101648.56;5056462;23;22283;-65
2023/01/25 09:06:37;;;;;;;63.33;26.60;;;;;;;-1.63;97.33;101648.66;5059181;23;22042;-62
2023/01/25 09:09:03;;;;;;;58.10;24.50;;;;;;;-1.82;98.09;101651.69;5055324;23;26591;-66
2023/01/25 09:11:32;;;;;;;59.53;25.17;;;;;;;-1.54;98.20;101648.44;5057844;23;21312;-63
2023/01/25 09:13:59;;;;;;;56.57;22.70;;;;;;;-1.56;97.19;101650.22;5054880;23;20795;-60
2023/01/25 09:16:29;;;;;;;57.53;24.53;;;;;;;-1.51;97.17;101643.13;5074395;23;20359;-62
2023/01/25 09:18:58;;;;;;;60.37;25.43;;;;;;;-1.59;97.45;101639.84;5045929;23;20204;-63
2023/01/25 09:21:25;;;;;;;64.50;26.73;;;;;;;-1.55;97.91;101641.47;5056913;23;20379;-63
2023/01/25 09:23:52;;;;;;;65.43;27.30;;;;;;;-1.53;97.62;101635.31;5066242;23;20807;-64
2023/01/25 09:26:38;;;;;;;60.50;26.00;;;;;;;-1.58;97.68;101641.56;5058893;23;20560;-66
2023/01/25 09:29:06;;;;;;;59.20;25.03;;;;;;;-1.56;97.38;101631.94;5067012;23;20204;-62
2023/01/25 09:31:34;;;;;;;59.47;26.97;;;;;;;-1.55;97.64;101637.09;5085836;23;20339;-64
2023/01/25 09:34:01;;;;;;;56.57;24.43;;;;;;;-1.59;98.06;101630.28;5064835;23;22029;-66
2023/01/25 09:36:27;;;;;;;57.17;24.90;;;;;;;-1.39;96.53;101621.06;5050778;23;20216;-65
2023/01/25 09:38:55;;;;;;;55.80;24.30;;;;;;;-1.49;96.67;101620.47;5042637;23;20208;-65
2023/01/25 09:41:50;;;;;;;61.13;24.80;;;;;;;-1.62;97.66;101608.59;5050139;23;20208;-66
2023/01/25 09:44:43;;;;;;;60.53;25.73;;;;;;;-1.26;96.96;101601.59;5074132;23;20209;-63
2023/01/25 09:47:24;;;;;;;66.17;27.33;;;;;;;-1.38;96.86;101602.78;5060732;23;20211;-67
2023/01/25 09:50:09;;;;;;;59.60;26.83;;;;;;;-1.24;97.01;101594.56;5080271;23;20216;-64
2023/01/25 09:52:56;;;;;;;61.80;25.27;;;;;;;-1.19;96.51;101597.06;5075177;23;21684;-65
2023/01/25 09:55:25;;;;;;;66.87;26.90;;;;;;;-1.15;96.57;101591.72;5056438;23;21167;-68
2023/01/25 09:57:52;;;;;;;60.47;26.23;;;;;;;-1.13;96.55;101591.66;5046807;23;20459;-65
2023/01/25 10:00:53;;;;;;;58.47;25.53;;;;;;;-1.45;96.32;101595.13;5061194;23;21717;-66
2023/01/25 10:03:23;;;;;;;67.77;25.70;;;;;;;-1.54;96.96;101588.41;5015790;23;21903;-65
2023/01/25 10:05:53;;;;;;;66.43;27.50;;;;;;;-1.39;97.53;101590.59;5052111;23;21369;-66
2023/01/25 10:08:48;;;;;;;72.13;28.60;;;;;;;-1.29;96.93;101586.00;5085202;23;20268;-65
2023/01/25 10:11:27;;;;;;;72.00;27.70;;;;;;;-1.29;96.55;101586.00;5039514;23;20528;-66
2023/01/25 10:13:55;;;;;;;74.23;28.20;;;;;;;-1.21;96.37;101577.97;5057701;23;20212;-69
2023/01/25 10:16:48;;;;;;;67.93;27.23;;;;;;;-1.14;96.56;101576.91;5056770;23;25990;-67
2023/01/25 10:19:34;;;;;;;60.13;25.67;;;;;;;-1.03;96.18;101576.59;5094020;23;21722;-65
2023/01/25 10:22:10;;;;;;;64.63;28.30;;;;;;;-1.14;96.00;101569.06;5064397;23;20204;-68
2023/01/25 10:24:49;;;;;;;77.63;28.07;;;;;;;-1.15;96.63;101572.56;5070416;23;21003;-65
2023/01/25 10:27:52;;;;;;;76.93;29.63;;;;;;;-1.06;95.82;101562.72;5075478;23;26379;-65
2023/01/25 10:30:30;;;;;;;70.13;27.90;;;;;;;-0.89;95.51;101558.75;5071348;23;20237;-62
2023/01/25 10:33:00;;;;;;;66.83;27.17;;;;;;;-0.98;95.60;101564.28;5090611;23;23301;-65
2023/01/25 10:35:35;;;;;;;60.73;25.93;;;;;;;-0.95;95.54;101548.50;5038629;23;23859;-64
2023/01/25 10:38:36;;;;;;;59.90;25.57;;;;;;;-1.25;96.24;101539.78;5047458;23;20211;-63
2023/01/25 10:41:09;;;;;;;61.10;26.13;;;;;;;-1.34;96.84;101533.88;5091799;23;20208;-65
2023/01/25 10:43:35;;;;;;;66.37;27.97;;;;;;;-1.17;96.91;101529.94;5040123;23;22776;-64
2023/01/25 10:46:02;;;;;;;63.80;27.63;;;;;;;-1.41;96.74;101528.88;5058026;23;20612;-66
2023/01/25 10:48:33;;;;;;;64.73;28.13;;;;;;;-1.17;96.88;101523.00;5066235;23;20366;-65
2023/01/25 10:51:00;;;;;;;67.80;27.87;;;;;;;-1.19;96.60;101518.72;5051682;23;20208;-63
2023/01/25 10:53:30;;;;;;;72.57;29.00;;;;;;;-1.08;97.22;101521.84;5064291;23;20929;-62
2023/01/25 10:55:59;;;;;;;59.53;26.47;;;;;;;-1.01;96.31;101517.31;5087666;23;20861;-64
2023/01/25 10:58:31;;;;;;;70.67;28.33;;;;;;;-1.05;96.17;101516.56;5072995;23;20208;-65
2023/01/25 11:00:58;;;;;;;69.33;28.53;;;;;;;-1.16;96.79;101519.47;5065901;23;20216;-66
2023/01/25 11:03:33;;;;;;;74.47;29.57;;;;;;;-1.08;97.56;101519.25;5095354;23;20207;-65
2023/01/25 11:06:00;;;;;;;66.63;28.47;;;;;;;-1.06;96.70;101517.44;5100873;23;20199;-65
2023/01/25 11:08:30;;;;;;;67.17;29.57;;;;;;;-1.20;97.08;101507.41;5079159;22;21201;-63
2023/01/25 11:10:57;;;;;;;69.70;29.70;;;;;;;-1.17;97.56;101509.06;5078669;23;22139;-66
2023/01/25 11:13:33;;;;;;;73.63;29.37;;;;;;;-1.29;97.75;101497.22;5086257;23;22587;-64
2023/01/25 11:16:03;;;;;;;72.63;29.37;;;;;;;-1.30;97.87;101495.50;5060427;23;20210;-66
2023/01/25 11:18:33;;;;;;;67.07;29.13;;;;;;;-1.20;97.96;101486.50;5093129;23;20212;-67